MKY weather

Mackay Airport
Mackay, Queensland, Australia

Public forecast

Using degrees Celsius for public forecast. Weather courtesy of forecast.io.

METAR (pilot weather report)

Retrieved 2017/05/24 07:00 UTC (47 minutes ago):

YBMK 240700Z AUTO 14009KT 9999 // NCD 23/18 Q1017

TAF (pilot weather forecast)

Forecast is more than 12 hours old.

Closest forecast is Hamilton Island Airport, 50.5 nm (93.5 km) NNW. Retrieved 2017/05/11 12:00 UTC (13 days ago):

TAF YBHM 111106Z 1112/1124 14018KT 9999 FEW020 FM111400 13020KT 9999 -SHRA SCT020 SCT035 INTER 1115/1124 3000 SHRA BKN015